sensor_id;sensor_type;location;lat;lon;timestamp;temperature;humidity
30037;DHT22;36325;51.512;-0.382;2022-12-18T00:01:34;0.70;99.90
30037;DHT22;36325;51.512;-0.382;2022-12-18T00:05:00;0.80;99.90
30037;DHT22;36325;51.512;-0.382;2022-12-18T00:08:04;0.90;99.90
30037;DHT22;36325;51.512;-0.382;2022-12-18T00:10:54;0.90;99.90
30037;DHT22;36325;51.512;-0.382;2022-12-18T00:13:48;1.00;99.90
30037;DHT22;36325;51.512;-0.382;2022-12-18T00:16:51;1.00;99.90
30037;DHT22;36325;51.512;-0.382;2022-12-18T00:19:48;1.00;99.90
30037;DHT22;36325;51.512;-0.382;2022-12-18T00:22:57;1.10;99.90
30037;DHT22;36325;51.512;-0.382;2022-12-18T00:26:12;1.20;99.90
30037;DHT22;36325;51.512;-0.382;2022-12-18T00:29:13;1.20;99.90
30037;DHT22;36325;51.512;-0.382;2022-12-18T00:32:12;1.20;99.90
30037;DHT22;36325;51.512;-0.382;2022-12-18T00:35:08;1.20;99.90
30037;DHT22;36325;51.512;-0.382;2022-12-18T00:38:06;1.20;99.90
30037;DHT22;36325;51.512;-0.382;2022-12-18T00:41:29;1.20;99.90
30037;DHT22;36325;51.512;-0.382;2022-12-18T00:45:04;1.20;99.90
30037;DHT22;36325;51.512;-0.382;2022-12-18T00:48:47;1.20;99.90
30037;DHT22;36325;51.512;-0.382;2022-12-18T00:52:08;1.10;99.90
30037;DHT22;36325;51.512;-0.382;2022-12-18T00:55:18;1.10;99.90
30037;DHT22;36325;51.512;-0.382;2022-12-18T00:58:19;1.10;99.90
30037;DHT22;36325;51.512;-0.382;2022-12-18T01:01:32;1.10;99.90
30037;DHT22;36325;51.512;-0.382;2022-12-18T01:04:41;1.10;99.90
30037;DHT22;36325;51.512;-0.382;2022-12-18T01:07:57;1.10;99.90
30037;DHT22;36325;51.512;-0.382;2022-12-18T01:11:30;1.10;99.90
30037;DHT22;36325;51.512;-0.382;2022-12-18T01:14:34;1.10;99.90
30037;DHT22;36325;51.512;-0.382;2022-12-18T01:17:42;1.10;99.90
30037;DHT22;36325;51.512;-0.382;2022-12-18T01:20:53;1.10;99.90
30037;DHT22;36325;51.512;-0.382;2022-12-18T01:24:10;1.00;99.90
30037;DHT22;36325;51.512;-0.382;2022-12-18T01:27:22;1.00;99.90
30037;DHT22;36325;51.512;-0.382;2022-12-18T01:30:17;0.80;99.90
30037;DHT22;36325;51.512;-0.382;2022-12-18T01:33:35;0.80;99.90
30037;DHT22;36325;51.512;-0.382;2022-12-18T01:36:37;0.80;99.90
30037;DHT22;36325;51.512;-0.382;2022-12-18T01:39:30;0.70;99.90
30037;DHT22;36325;51.512;-0.382;2022-12-18T01:42:34;0.70;99.90
30037;DHT22;36325;51.512;-0.382;2022-12-18T01:45:31;0.80;99.90
30037;DHT22;36325;51.512;-0.382;2022-12-18T01:48:50;0.80;99.90
30037;DHT22;36325;51.512;-0.382;2022-12-18T01:51:53;0.80;99.90
30037;DHT22;36325;51.512;-0.382;2022-12-18T01:54:55;0.90;99.90
30037;DHT22;36325;51.512;-0.382;2022-12-18T01:57:57;0.90;99.90
30037;DHT22;36325;51.512;-0.382;2022-12-18T02:00:59;0.90;99.90
30037;DHT22;36325;51.512;-0.382;2022-12-18T02:03:54;0.90;99.90
30037;DHT22;36325;51.512;-0.382;2022-12-18T02:10:41;1.00;99.90
30037;DHT22;36325;51.512;-0.382;2022-12-18T02:14:02;1.00;99.90
30037;DHT22;36325;51.512;-0.382;2022-12-18T02:17:06;1.00;99.90
30037;DHT22;36325;51.512;-0.382;2022-12-18T02:26:36;1.00;99.90
30037;DHT22;36325;51.512;-0.382;2022-12-18T02:30:06;1.00;99.90
30037;DHT22;36325;51.512;-0.382;2022-12-18T02:33:15;1.00;99.90
30037;DHT22;36325;51.512;-0.382;2022-12-18T02:36:06;1.00;99.90
30037;DHT22;36325;51.512;-0.382;2022-12-18T02:39:10;1.00;99.90
30037;DHT22;36325;51.512;-0.382;2022-12-18T02:42:08;1.00;99.90
30037;DHT22;36325;51.512;-0.382;2022-12-18T02:45:12;1.10;99.90
30037;DHT22;36325;51.512;-0.382;2022-12-18T02:48:03;1.10;99.90
30037;DHT22;36325;51.512;-0.382;2022-12-18T02:51:08;1.10;99.90
30037;DHT22;36325;51.512;-0.382;2022-12-18T02:57:33;1.10;99.90
30037;DHT22;36325;51.512;-0.382;2022-12-18T03:00:46;1.10;99.90
30037;DHT22;36325;51.512;-0.382;2022-12-18T03:03:59;1.10;99.90
30037;DHT22;36325;51.512;-0.382;2022-12-18T03:07:15;1.10;99.90
30037;DHT22;36325;51.512;-0.382;2022-12-18T03:10:32;1.10;99.90
30037;DHT22;36325;51.512;-0.382;2022-12-18T03:13:35;1.10;99.90
30037;DHT22;36325;51.512;-0.382;2022-12-18T03:16:53;1.10;99.90
30037;DHT22;36325;51.512;-0.382;2022-12-18T03:20:27;1.00;99.90
30037;DHT22;36325;51.512;-0.382;2022-12-18T03:23:54;1.00;99.90
30037;DHT22;36325;51.512;-0.382;2022-12-18T03:27:01;1.00;99.90
30037;DHT22;36325;51.512;-0.382;2022-12-18T03:30:28;1.00;99.90
30037;DHT22;36325;51.512;-0.382;2022-12-18T03:33:58;0.90;99.90
30037;DHT22;36325;51.512;-0.382;2022-12-18T03:37:00;0.90;99.90
30037;DHT22;36325;51.512;-0.382;2022-12-18T03:40:09;0.80;99.90
30037;DHT22;36325;51.512;-0.382;2022-12-18T03:44:02;0.80;99.90
30037;DHT22;36325;51.512;-0.382;2022-12-18T03:53:54;0.70;99.90
30037;DHT22;36325;51.512;-0.382;2022-12-18T03:57:12;0.70;99.90
30037;DHT22;36325;51.512;-0.382;2022-12-18T04:00:18;0.70;99.90
30037;DHT22;36325;51.512;-0.382;2022-12-18T04:03:27;0.70;99.90
30037;DHT22;36325;51.512;-0.382;2022-12-18T04:06:31;0.70;99.90
30037;DHT22;36325;51.512;-0.382;2022-12-18T04:09:22;0.70;99.90
30037;DHT22;36325;51.512;-0.382;2022-12-18T04:12:12;0.70;99.90
30037;DHT22;36325;51.512;-0.382;2022-12-18T04:15:07;0.70;99.90
30037;DHT22;36325;51.512;-0.382;2022-12-18T04:18:09;0.70;99.90
30037;DHT22;36325;51.512;-0.382;2022-12-18T04:21:13;0.70;99.90
30037;DHT22;36325;51.512;-0.382;2022-12-18T04:24:33;0.70;99.90
30037;DHT22;36325;51.512;-0.382;2022-12-18T04:27:41;0.70;99.90
30037;DHT22;36325;51.512;-0.382;2022-12-18T04:30:51;0.70;99.90
30037;DHT22;36325;51.512;-0.382;2022-12-18T04:33:49;0.70;99.90
30037;DHT22;36325;51.512;-0.382;2022-12-18T04:37:09;0.80;99.90
30037;DHT22;36325;51.512;-0.382;2022-12-18T04:40:11;0.80;99.90
30037;DHT22;36325;51.512;-0.382;2022-12-18T04:43:12;0.80;99.90
30037;DHT22;36325;51.512;-0.382;2022-12-18T04:46:29;0.90;99.90
30037;DHT22;36325;51.512;-0.382;2022-12-18T04:49:42;0.90;99.90
30037;DHT22;36325;51.512;-0.382;2022-12-18T04:53:11;0.90;99.90
30037;DHT22;36325;51.512;-0.382;2022-12-18T04:56:31;1.00;99.90
30037;DHT22;36325;51.512;-0.382;2022-12-18T04:59:46;1.00;99.90
30037;DHT22;36325;51.512;-0.382;2022-12-18T05:03:10;1.00;99.90
30037;DHT22;36325;51.512;-0.382;2022-12-18T05:06:12;1.00;99.90
30037;DHT22;36325;51.512;-0.382;2022-12-18T05:09:29;1.00;99.90
30037;DHT22;36325;51.512;-0.382;2022-12-18T05:12:31;1.00;99.90
30037;DHT22;36325;51.512;-0.382;2022-12-18T05:16:08;1.10;99.90
30037;DHT22;36325;51.512;-0.382;2022-12-18T05:19:06;1.10;99.90
30037;DHT22;36325;51.512;-0.382;2022-12-18T05:22:06;1.10;99.90
30037;DHT22;36325;51.512;-0.382;2022-12-18T05:24:55;1.10;99.90
30037;DHT22;36325;51.512;-0.382;2022-12-18T05:27:58;1.20;99.90
30037;DHT22;36325;51.512;-0.382;2022-12-18T05:31:03;1.10;99.90
30037;DHT22;36325;51.512;-0.382;2022-12-18T05:34:02;1.20;99.90
30037;DHT22;36325;51.512;-0.382;2022-12-18T05:36:56;1.20;99.90
30037;DHT22;36325;51.512;-0.382;2022-12-18T05:39:55;1.20;99.90
30037;DHT22;36325;51.512;-0.382;2022-12-18T05:42:58;1.20;99.90
30037;DHT22;36325;51.512;-0.382;2022-12-18T05:46:16;1.20;99.90
30037;DHT22;36325;51.512;-0.382;2022-12-18T05:49:16;1.10;99.90
30037;DHT22;36325;51.512;-0.382;2022-12-18T05:52:20;1.10;99.90
30037;DHT22;36325;51.512;-0.382;2022-12-18T05:55:26;1.10;99.90
30037;DHT22;36325;51.512;-0.382;2022-12-18T05:58:28;1.20;99.90
30037;DHT22;36325;51.512;-0.382;2022-12-18T06:01:30;1.20;99.90
30037;DHT22;36325;51.512;-0.382;2022-12-18T06:04:35;1.20;99.90
30037;DHT22;36325;51.512;-0.382;2022-12-18T06:07:35;1.20;99.90
30037;DHT22;36325;51.512;-0.382;2022-12-18T06:10:40;1.20;99.90
30037;DHT22;36325;51.512;-0.382;2022-12-18T06:13:37;1.20;99.90
30037;DHT22;36325;51.512;-0.382;2022-12-18T06:16:40;1.30;99.90
30037;DHT22;36325;51.512;-0.382;2022-12-18T06:19:57;1.30;99.90
30037;DHT22;36325;51.512;-0.382;2022-12-18T06:23:12;1.40;99.90
30037;DHT22;36325;51.512;-0.382;2022-12-18T06:26:16;1.40;99.90
30037;DHT22;36325;51.512;-0.382;2022-12-18T06:28:59;1.40;99.90
30037;DHT22;36325;51.512;-0.382;2022-12-18T06:31:49;1.50;99.90
30037;DHT22;36325;51.512;-0.382;2022-12-18T06:34:48;1.90;99.90
30037;DHT22;36325;51.512;-0.382;2022-12-18T06:38:02;1.50;99.90
30037;DHT22;36325;51.512;-0.382;2022-12-18T06:41:24;1.60;99.90
30037;DHT22;36325;51.512;-0.382;2022-12-18T06:44:42;1.60;99.90
30037;DHT22;36325;51.512;-0.382;2022-12-18T06:47:28;1.70;99.90
30037;DHT22;36325;51.512;-0.382;2022-12-18T06:50:25;1.70;99.90
30037;DHT22;36325;51.512;-0.382;2022-12-18T06:53:23;1.70;99.90
30037;DHT22;36325;51.512;-0.382;2022-12-18T06:56:24;1.80;99.90
30037;DHT22;36325;51.512;-0.382;2022-12-18T06:59:09;1.80;99.90
30037;DHT22;36325;51.512;-0.382;2022-12-18T07:02:16;1.80;99.90
30037;DHT22;36325;51.512;-0.382;2022-12-18T07:05:31;1.90;99.90
30037;DHT22;36325;51.512;-0.382;2022-12-18T07:08:35;1.90;99.90
30037;DHT22;36325;51.512;-0.382;2022-12-18T07:11:46;1.90;99.90
30037;DHT22;36325;51.512;-0.382;2022-12-18T07:14:45;1.90;99.90
30037;DHT22;36325;51.512;-0.382;2022-12-18T07:17:58;2.00;99.90
30037;DHT22;36325;51.512;-0.382;2022-12-18T07:21:08;2.00;99.90
30037;DHT22;36325;51.512;-0.382;2022-12-18T07:24:27;2.10;99.90
30037;DHT22;36325;51.512;-0.382;2022-12-18T07:27:23;2.10;99.90
30037;DHT22;36325;51.512;-0.382;2022-12-18T07:30:12;2.10;99.90
30037;DHT22;36325;51.512;-0.382;2022-12-18T07:33:26;2.10;99.90
30037;DHT22;36325;51.512;-0.382;2022-12-18T07:36:26;2.10;99.90
30037;DHT22;36325;51.512;-0.382;2022-12-18T07:39:25;2.10;99.90
30037;DHT22;36325;51.512;-0.382;2022-12-18T07:42:26;2.10;99.90
30037;DHT22;36325;51.512;-0.382;2022-12-18T07:45:18;2.10;99.90
30037;DHT22;36325;51.512;-0.382;2022-12-18T07:48:35;2.20;99.90
30037;DHT22;36325;51.512;-0.382;2022-12-18T07:51:44;2.20;99.90
30037;DHT22;36325;51.512;-0.382;2022-12-18T07:55:03;2.20;99.90
30037;DHT22;36325;51.512;-0.382;2022-12-18T07:58:19;2.20;99.90
30037;DHT22;36325;51.512;-0.382;2022-12-18T08:01:30;2.30;99.90
30037;DHT22;36325;51.512;-0.382;2022-12-18T08:04:27;2.30;99.90
30037;DHT22;36325;51.512;-0.382;2022-12-18T08:07:43;2.30;99.90
30037;DHT22;36325;51.512;-0.382;2022-12-18T08:10:51;2.30;99.90
30037;DHT22;36325;51.512;-0.382;2022-12-18T08:13:50;2.30;99.90
30037;DHT22;36325;51.512;-0.382;2022-12-18T08:16:44;2.30;99.90
30037;DHT22;36325;51.512;-0.382;2022-12-18T08:19:47;2.30;99.90
30037;DHT22;36325;51.512;-0.382;2022-12-18T08:22:55;2.30;99.90
30037;DHT22;36325;51.512;-0.382;2022-12-18T08:25:53;2.40;99.90
30037;DHT22;36325;51.512;-0.382;2022-12-18T08:28:58;2.40;99.90
30037;DHT22;36325;51.512;-0.382;2022-12-18T08:32:13;2.40;99.90
30037;DHT22;36325;51.512;-0.382;2022-12-18T08:35:19;2.50;99.90
30037;DHT22;36325;51.512;-0.382;2022-12-18T08:38:29;2.50;99.90
30037;DHT22;36325;51.512;-0.382;2022-12-18T08:41:43;2.50;99.90
30037;DHT22;36325;51.512;-0.382;2022-12-18T08:44:56;2.50;99.90
30037;DHT22;36325;51.512;-0.382;2022-12-18T08:47:56;2.60;99.90
30037;DHT22;36325;51.512;-0.382;2022-12-18T08:51:11;2.60;99.90
30037;DHT22;36325;51.512;-0.382;2022-12-18T08:54:15;2.70;99.90
30037;DHT22;36325;51.512;-0.382;2022-12-18T08:57:26;2.70;99.90
30037;DHT22;36325;51.512;-0.382;2022-12-18T09:00:14;2.80;99.90
30037;DHT22;36325;51.512;-0.382;2022-12-18T09:03:38;2.90;99.90
30037;DHT22;36325;51.512;-0.382;2022-12-18T09:06:58;2.80;99.90
30037;DHT22;36325;51.512;-0.382;2022-12-18T09:10:20;2.80;99.90
30037;DHT22;36325;51.512;-0.382;2022-12-18T09:13:16;2.90;99.90
30037;DHT22;36325;51.512;-0.382;2022-12-18T09:16:15;2.90;99.90
30037;DHT22;36325;51.512;-0.382;2022-12-18T09:19:21;2.90;99.90
30037;DHT22;36325;51.512;-0.382;2022-12-18T09:22:47;3.00;99.90
30037;DHT22;36325;51.512;-0.382;2022-12-18T09:25:46;3.00;99.90
30037;DHT22;36325;51.512;-0.382;2022-12-18T09:28:51;3.00;99.90
30037;DHT22;36325;51.512;-0.382;2022-12-18T09:31:52;3.00;99.90
30037;DHT22;36325;51.512;-0.382;2022-12-18T09:34:59;3.20;99.90
30037;DHT22;36325;51.512;-0.382;2022-12-18T09:38:14;3.10;99.90
30037;DHT22;36325;51.512;-0.382;2022-12-18T09:41:50;3.10;99.90
30037;DHT22;36325;51.512;-0.382;2022-12-18T09:44:55;3.20;99.90
30037;DHT22;36325;51.512;-0.382;2022-12-18T09:48:28;3.10;99.90
30037;DHT22;36325;51.512;-0.382;2022-12-18T09:54:54;3.20;99.90
30037;DHT22;36325;51.512;-0.382;2022-12-18T09:58:03;3.30;99.90
30037;DHT22;36325;51.512;-0.382;2022-12-18T10:01:24;3.30;99.90
30037;DHT22;36325;51.512;-0.382;2022-12-18T10:04:29;3.40;99.90
30037;DHT22;36325;51.512;-0.382;2022-12-18T10:11:29;3.30;99.90
30037;DHT22;36325;51.512;-0.382;2022-12-18T10:15:12;3.40;99.90
30037;DHT22;36325;51.512;-0.382;2022-12-18T10:18:51;3.40;99.90
30037;DHT22;36325;51.512;-0.382;2022-12-18T10:29:24;3.60;99.90
30037;DHT22;36325;51.512;-0.382;2022-12-18T10:32:32;3.70;99.90
30037;DHT22;36325;51.512;-0.382;2022-12-18T10:35:47;3.70;99.90
30037;DHT22;36325;51.512;-0.382;2022-12-18T10:39:30;3.70;99.90
30037;DHT22;36325;51.512;-0.382;2022-12-18T10:42:31;3.70;99.90
30037;DHT22;36325;51.512;-0.382;2022-12-18T10:46:31;3.70;99.90
30037;DHT22;36325;51.512;-0.382;2022-12-18T10:49:18;3.70;99.90
30037;DHT22;36325;51.512;-0.382;2022-12-18T10:52:26;3.80;99.90
30037;DHT22;36325;51.512;-0.382;2022-12-18T10:55:53;3.80;99.90
30037;DHT22;36325;51.512;-0.382;2022-12-18T10:59:11;3.90;99.90
30037;DHT22;36325;51.512;-0.382;2022-12-18T11:06:07;3.90;99.90
30037;DHT22;36325;51.512;-0.382;2022-12-18T11:09:59;3.90;99.90
30037;DHT22;36325;51.512;-0.382;2022-12-18T11:13:25;3.90;99.90
30037;DHT22;36325;51.512;-0.382;2022-12-18T11:16:44;3.90;99.90
30037;DHT22;36325;51.512;-0.382;2022-12-18T11:20:34;3.90;99.90
30037;DHT22;36325;51.512;-0.382;2022-12-18T11:23:49;3.90;99.90
30037;DHT22;36325;51.512;-0.382;2022-12-18T11:27:04;3.90;99.90
30037;DHT22;36325;51.512;-0.382;2022-12-18T11:30:35;3.90;99.90
30037;DHT22;36325;51.512;-0.382;2022-12-18T11:33:31;3.90;99.90
30037;DHT22;36325;51.512;-0.382;2022-12-18T11:37:07;3.80;99.90
30037;DHT22;36325;51.512;-0.382;2022-12-18T11:40:19;3.80;99.90
30037;DHT22;36325;51.512;-0.382;2022-12-18T11:43:47;3.80;99.90
30037;DHT22;36325;51.512;-0.382;2022-12-18T11:47:30;3.90;99.90
30037;DHT22;36325;51.512;-0.382;2022-12-18T11:51:01;3.80;99.90
30037;DHT22;36325;51.512;-0.382;2022-12-18T11:54:15;3.80;99.90
30037;DHT22;36325;51.512;-0.382;2022-12-18T11:57:45;3.90;99.90
30037;DHT22;36325;51.512;-0.382;2022-12-18T12:07:49;3.90;99.90
30037;DHT22;36325;51.512;-0.382;2022-12-18T12:11:05;3.90;99.90
30037;DHT22;36325;51.512;-0.382;2022-12-18T12:21:25;3.90;99.90
30037;DHT22;36325;51.512;-0.382;2022-12-18T12:24:53;3.90;99.90
30037;DHT22;36325;51.512;-0.382;2022-12-18T12:31:55;3.90;99.90
30037;DHT22;36325;51.512;-0.382;2022-12-18T12:35:17;3.90;99.90
30037;DHT22;36325;51.512;-0.382;2022-12-18T12:38:54;3.90;99.90
30037;DHT22;36325;51.512;-0.382;2022-12-18T12:42:05;3.90;99.90
30037;DHT22;36325;51.512;-0.382;2022-12-18T12:48:59;4.10;99.90
30037;DHT22;36325;51.512;-0.382;2022-12-18T12:52:16;4.10;99.90
30037;DHT22;36325;51.512;-0.382;2022-12-18T12:55:29;4.10;99.90
30037;DHT22;36325;51.512;-0.382;2022-12-18T13:05:53;4.10;99.90
30037;DHT22;36325;51.512;-0.382;2022-12-18T13:09:09;4.10;99.90
30037;DHT22;36325;51.512;-0.382;2022-12-18T13:12:16;3.40;99.90
30037;DHT22;36325;51.512;-0.382;2022-12-18T13:18:23;4.10;99.90
30037;DHT22;36325;51.512;-0.382;2022-12-18T13:21:30;4.10;99.90
30037;DHT22;36325;51.512;-0.382;2022-12-18T13:24:43;4.10;99.90
30037;DHT22;36325;51.512;-0.382;2022-12-18T13:28:14;4.10;99.90
30037;DHT22;36325;51.512;-0.382;2022-12-18T13:31:10;4.20;99.90
30037;DHT22;36325;51.512;-0.382;2022-12-18T13:34:34;4.20;99.90
30037;DHT22;36325;51.512;-0.382;2022-12-18T13:37:50;4.20;99.90
30037;DHT22;36325;51.512;-0.382;2022-12-18T13:40:59;4.20;99.90
30037;DHT22;36325;51.512;-0.382;2022-12-18T13:44:10;4.20;99.90
30037;DHT22;36325;51.512;-0.382;2022-12-18T13:47:39;4.20;99.90
30037;DHT22;36325;51.512;-0.382;2022-12-18T13:51:07;4.20;99.90
30037;DHT22;36325;51.512;-0.382;2022-12-18T13:57:02;4.20;99.90
30037;DHT22;36325;51.512;-0.382;2022-12-18T14:03:34;4.20;99.90
30037;DHT22;36325;51.512;-0.382;2022-12-18T14:07:15;3.30;99.90
30037;DHT22;36325;51.512;-0.382;2022-12-18T14:10:25;4.20;99.90
30037;DHT22;36325;51.512;-0.382;2022-12-18T14:13:41;4.20;99.90
30037;DHT22;36325;51.512;-0.382;2022-12-18T14:16:45;4.20;99.90
30037;DHT22;36325;51.512;-0.382;2022-12-18T14:20:16;4.20;99.90
30037;DHT22;36325;51.512;-0.382;2022-12-18T14:23:31;4.20;99.90
30037;DHT22;36325;51.512;-0.382;2022-12-18T14:27:24;4.20;99.90
30037;DHT22;36325;51.512;-0.382;2022-12-18T14:30:42;4.20;99.90
30037;DHT22;36325;51.512;-0.382;2022-12-18T14:33:42;4.20;99.90
30037;DHT22;36325;51.512;-0.382;2022-12-18T14:36:56;4.20;99.90
30037;DHT22;36325;51.512;-0.382;2022-12-18T14:40:11;4.20;99.90
30037;DHT22;36325;51.512;-0.382;2022-12-18T14:43:13;4.20;99.90
30037;DHT22;36325;51.512;-0.382;2022-12-18T14:49:31;4.20;99.90
30037;DHT22;36325;51.512;-0.382;2022-12-18T14:52:36;4.20;99.90
30037;DHT22;36325;51.512;-0.382;2022-12-18T14:55:32;4.30;99.90
30037;DHT22;36325;51.512;-0.382;2022-12-18T14:58:20;4.20;99.90
30037;DHT22;36325;51.512;-0.382;2022-12-18T15:05:04;4.30;99.90
30037;DHT22;36325;51.512;-0.382;2022-12-18T15:08:51;4.30;99.90
30037;DHT22;36325;51.512;-0.382;2022-12-18T15:11:55;4.30;99.90
30037;DHT22;36325;51.512;-0.382;2022-12-18T15:14:58;4.30;99.90
30037;DHT22;36325;51.512;-0.382;2022-12-18T15:18:30;4.40;99.90
30037;DHT22;36325;51.512;-0.382;2022-12-18T15:21:33;4.40;99.90
30037;DHT22;36325;51.512;-0.382;2022-12-18T15:24:31;4.40;99.90
30037;DHT22;36325;51.512;-0.382;2022-12-18T15:27:30;4.40;99.90
30037;DHT22;36325;51.512;-0.382;2022-12-18T15:30:36;4.50;99.90
30037;DHT22;36325;51.512;-0.382;2022-12-18T15:33:46;4.50;99.90
30037;DHT22;36325;51.512;-0.382;2022-12-18T15:37:02;4.50;99.90
30037;DHT22;36325;51.512;-0.382;2022-12-18T15:40:13;4.60;99.90
30037;DHT22;36325;51.512;-0.382;2022-12-18T15:43:14;4.70;99.90
30037;DHT22;36325;51.512;-0.382;2022-12-18T15:46:52;4.70;99.90
30037;DHT22;36325;51.512;-0.382;2022-12-18T15:49:48;4.70;99.90
30037;DHT22;36325;51.512;-0.382;2022-12-18T15:52:47;4.80;99.90
30037;DHT22;36325;51.512;-0.382;2022-12-18T15:55:47;5.40;99.90
30037;DHT22;36325;51.512;-0.382;2022-12-18T15:59:15;4.90;99.90
30037;DHT22;36325;51.512;-0.382;2022-12-18T16:02:18;4.90;99.90
30037;DHT22;36325;51.512;-0.382;2022-12-18T16:05:27;5.00;99.90
30037;DHT22;36325;51.512;-0.382;2022-12-18T16:08:27;5.10;99.90
30037;DHT22;36325;51.512;-0.382;2022-12-18T16:11:42;5.00;99.90
30037;DHT22;36325;51.512;-0.382;2022-12-18T16:15:13;5.10;99.90
30037;DHT22;36325;51.512;-0.382;2022-12-18T16:18:35;5.20;99.90
30037;DHT22;36325;51.512;-0.382;2022-12-18T16:21:45;5.20;99.90
30037;DHT22;36325;51.512;-0.382;2022-12-18T16:24:47;5.20;99.90
30037;DHT22;36325;51.512;-0.382;2022-12-18T16:27:42;5.30;99.90
30037;DHT22;36325;51.512;-0.382;2022-12-18T16:31:08;5.30;99.90
30037;DHT22;36325;51.512;-0.382;2022-12-18T16:34:32;5.40;99.90
30037;DHT22;36325;51.512;-0.382;2022-12-18T16:37:23;5.40;99.90
30037;DHT22;36325;51.512;-0.382;2022-12-18T16:40:38;5.50;99.90
30037;DHT22;36325;51.512;-0.382;2022-12-18T16:43:57;5.50;99.90
30037;DHT22;36325;51.512;-0.382;2022-12-18T16:47:09;5.60;99.90
30037;DHT22;36325;51.512;-0.382;2022-12-18T16:50:11;5.70;99.90
30037;DHT22;36325;51.512;-0.382;2022-12-18T16:53:10;5.70;99.90
30037;DHT22;36325;51.512;-0.382;2022-12-18T16:56:20;5.70;99.90
30037;DHT22;36325;51.512;-0.382;2022-12-18T16:59:53;5.80;99.90
30037;DHT22;36325;51.512;-0.382;2022-12-18T17:02:57;6.00;99.90
30037;DHT22;36325;51.512;-0.382;2022-12-18T17:06:11;6.20;99.90
30037;DHT22;36325;51.512;-0.382;2022-12-18T17:09:07;6.30;99.90
30037;DHT22;36325;51.512;-0.382;2022-12-18T17:12:23;6.30;99.90
30037;DHT22;36325;51.512;-0.382;2022-12-18T17:15:27;6.40;99.90
30037;DHT22;36325;51.512;-0.382;2022-12-18T17:18:36;6.90;99.90
30037;DHT22;36325;51.512;-0.382;2022-12-18T17:21:55;6.60;99.90
30037;DHT22;36325;51.512;-0.382;2022-12-18T17:24:41;6.60;99.90
30037;DHT22;36325;51.512;-0.382;2022-12-18T17:27:49;6.70;99.90
30037;DHT22;36325;51.512;-0.382;2022-12-18T17:30:58;6.70;99.90
30037;DHT22;36325;51.512;-0.382;2022-12-18T17:34:13;6.70;99.90
30037;DHT22;36325;51.512;-0.382;2022-12-18T17:37:51;6.70;99.90
30037;DHT22;36325;51.512;-0.382;2022-12-18T17:41:18;6.80;99.90
30037;DHT22;36325;51.512;-0.382;2022-12-18T17:44:41;6.80;99.90
30037;DHT22;36325;51.512;-0.382;2022-12-18T17:48:18;6.70;99.90
30037;DHT22;36325;51.512;-0.382;2022-12-18T17:51:22;6.90;99.90
30037;DHT22;36325;51.512;-0.382;2022-12-18T17:54:46;6.90;99.90
30037;DHT22;36325;51.512;-0.382;2022-12-18T17:58:07;7.00;99.90
30037;DHT22;36325;51.512;-0.382;2022-12-18T18:01:27;7.10;99.90
30037;DHT22;36325;51.512;-0.382;2022-12-18T18:04:40;7.00;99.90
30037;DHT22;36325;51.512;-0.382;2022-12-18T18:07:43;7.00;99.90
30037;DHT22;36325;51.512;-0.382;2022-12-18T18:10:49;7.00;99.90
30037;DHT22;36325;51.512;-0.382;2022-12-18T18:14:20;7.10;99.90
30037;DHT22;36325;51.512;-0.382;2022-12-18T18:17:22;7.10;99.90
30037;DHT22;36325;51.512;-0.382;2022-12-18T18:20:46;7.10;99.90
30037;DHT22;36325;51.512;-0.382;2022-12-18T18:23:42;7.10;99.90
30037;DHT22;36325;51.512;-0.382;2022-12-18T18:27:05;7.10;99.90
30037;DHT22;36325;51.512;-0.382;2022-12-18T18:30:23;7.20;99.90
30037;DHT22;36325;51.512;-0.382;2022-12-18T18:33:29;7.20;99.90
30037;DHT22;36325;51.512;-0.382;2022-12-18T18:36:40;7.30;99.90
30037;DHT22;36325;51.512;-0.382;2022-12-18T18:39:48;7.30;99.90
30037;DHT22;36325;51.512;-0.382;2022-12-18T18:42:35;7.30;99.90
30037;DHT22;36325;51.512;-0.382;2022-12-18T18:45:34;7.30;99.90
30037;DHT22;36325;51.512;-0.382;2022-12-18T18:48:40;7.40;99.90
30037;DHT22;36325;51.512;-0.382;2022-12-18T18:51:48;7.40;99.90
30037;DHT22;36325;51.512;-0.382;2022-12-18T18:54:51;7.40;99.90
30037;DHT22;36325;51.512;-0.382;2022-12-18T18:58:00;7.40;99.90
30037;DHT22;36325;51.512;-0.382;2022-12-18T19:01:11;7.50;99.90
30037;DHT22;36325;51.512;-0.382;2022-12-18T19:04:04;7.50;99.90
30037;DHT22;36325;51.512;-0.382;2022-12-18T19:10:28;7.60;99.90
30037;DHT22;36325;51.512;-0.382;2022-12-18T19:13:38;7.70;99.90
30037;DHT22;36325;51.512;-0.382;2022-12-18T19:16:42;7.40;99.90
30037;DHT22;36325;51.512;-0.382;2022-12-18T19:20:21;7.70;99.90
30037;DHT22;36325;51.512;-0.382;2022-12-18T19:23:43;7.70;99.90
30037;DHT22;36325;51.512;-0.382;2022-12-18T19:29:31;7.80;99.90
30037;DHT22;36325;51.512;-0.382;2022-12-18T19:31:58;7.80;99.90
30037;DHT22;36325;51.512;-0.382;2022-12-18T19:34:26;7.80;99.90
30037;DHT22;36325;51.512;-0.382;2022-12-18T19:36:54;7.90;99.90
30037;DHT22;36325;51.512;-0.382;2022-12-18T19:39:25;7.90;99.90
30037;DHT22;36325;51.512;-0.382;2022-12-18T19:41:53;8.00;99.90
30037;DHT22;36325;51.512;-0.382;2022-12-18T19:44:20;8.00;99.90
30037;DHT22;36325;51.512;-0.382;2022-12-18T19:46:50;8.00;99.90
30037;DHT22;36325;51.512;-0.382;2022-12-18T19:49:19;8.00;99.90
30037;DHT22;36325;51.512;-0.382;2022-12-18T19:51:49;8.10;99.90
30037;DHT22;36325;51.512;-0.382;2022-12-18T19:56:44;8.20;99.90
30037;DHT22;36325;51.512;-0.382;2022-12-18T19:59:12;8.20;99.90
30037;DHT22;36325;51.512;-0.382;2022-12-18T20:01:39;8.20;99.90
30037;DHT22;36325;51.512;-0.382;2022-12-18T20:04:07;8.30;99.90
30037;DHT22;36325;51.512;-0.382;2022-12-18T20:06:55;8.40;99.90
30037;DHT22;36325;51.512;-0.382;2022-12-18T20:09:22;8.40;99.90
30037;DHT22;36325;51.512;-0.382;2022-12-18T20:11:49;8.40;99.90
30037;DHT22;36325;51.512;-0.382;2022-12-18T20:16:46;8.50;99.90
30037;DHT22;36325;51.512;-0.382;2022-12-18T20:19:14;8.50;99.90
30037;DHT22;36325;51.512;-0.382;2022-12-18T20:21:41;8.50;99.90
30037;DHT22;36325;51.512;-0.382;2022-12-18T20:26:37;8.50;99.90
30037;DHT22;36325;51.512;-0.382;2022-12-18T20:29:04;8.50;99.90
30037;DHT22;36325;51.512;-0.382;2022-12-18T20:31:31;8.50;99.90
30037;DHT22;36325;51.512;-0.382;2022-12-18T20:33:58;8.60;99.90
30037;DHT22;36325;51.512;-0.382;2022-12-18T20:36:27;8.60;99.90
30037;DHT22;36325;51.512;-0.382;2022-12-18T20:38:55;8.60;99.90
30037;DHT22;36325;51.512;-0.382;2022-12-18T20:41:24;8.60;99.90
30037;DHT22;36325;51.512;-0.382;2022-12-18T20:46:19;8.70;99.90
30037;DHT22;36325;51.512;-0.382;2022-12-18T20:48:46;8.70;99.90
30037;DHT22;36325;51.512;-0.382;2022-12-18T20:51:16;8.70;99.90
30037;DHT22;36325;51.512;-0.382;2022-12-18T20:53:44;8.80;99.90
30037;DHT22;36325;51.512;-0.382;2022-12-18T20:56:16;8.70;99.90
30037;DHT22;36325;51.512;-0.382;2022-12-18T20:58:45;8.80;99.90
30037;DHT22;36325;51.512;-0.382;2022-12-18T21:01:18;8.80;99.90
30037;DHT22;36325;51.512;-0.382;2022-12-18T21:03:46;8.90;99.90
30037;DHT22;36325;51.512;-0.382;2022-12-18T21:06:15;8.80;99.90
30037;DHT22;36325;51.512;-0.382;2022-12-18T21:08:43;8.80;99.90
30037;DHT22;36325;51.512;-0.382;2022-12-18T21:14:27;8.90;99.90
30037;DHT22;36325;51.512;-0.382;2022-12-18T21:16:56;8.90;99.90
30037;DHT22;36325;51.512;-0.382;2022-12-18T21:19:27;8.90;99.90